Data for 07/03/2018

Time Sea-Level Adjusted Pressure Absolute Pressure Temperature Relative Humidity Dew Point   
(mb) (inHg) (mb) (inHg) (C) (F) (%) (C) (F)
00:05 1018 30.06 847 25.01 13 55.4 40 -0.3 31.5
00:10 1018 30.06 847 25.01 12.9 55.3 39 -0.5 31
00:15 1018 30.06 847 25.01 12.9 55.2 39 -0.6 31
00:20 1018 30.06 847 25.01 12.9 55.2 38 -0.9 30.5
00:25 1018 30.06 847 25.01 13 55.3 39 -0.8 30.6
00:30 1018 30.06 847 25.01 12.9 55.3 39 -0.8 30.6
00:35 1018 30.06 847 25.01 12.8 55.1 39 -0.7 30.8
00:40 1018 30.06 847 25.01 12.7 54.9 39 -0.7 30.7
00:45 1018 30.06 847 25.01 12.7 54.8 40 -0.6 31
00:50 1018 30.06 847 25.01 12.6 54.6 41 -0.2 31.6
00:55 1018 30.06 847 25.01 12.4 54.4 42 -0.2 31.6
01:00 1018 30.06 847 25.01 12.2 54 43 0 32.1
01:05 1018 30.06 847 25.01 12.1 53.7 43 -0.2 31.7
01:10 1018 30.06 847 25.01 12.1 53.7 41 -0.6 30.9
01:15 1018 30.06 847 25.01 12 53.6 41 -0.7 30.7
01:20 1018 30.06 847 25.01 12 53.5 42 -0.6 30.9
01:25 1018 30.06 847 25.01 11.8 53.3 41 -1 30.1
01:30 1018 30.06 847 25.01 11.7 53.1 41 -1 30.2
01:35 1018 30.06 847 25.01 11.7 53 41 -1 30.1
01:40 1018 30.06 847 25.01 11.7 53 41 -1.1 30.1
01:45 1018 30.06 847 25.01 11.6 52.9 40 -1.4 29.6
01:50 1018 30.06 847 25.01 11.5 52.8 40 -1.4 29.4
01:55 1018 30.06 847 25.01 11.5 52.7 40 -1.5 29.3
02:00 1018 30.06 847 25.01 11.4 52.6 38 -2.2 28.1
02:05 1018 30.06 847 25.01 11.5 52.8 39 -1.9 28.7
02:10 1018 30.06 848 25.04 11.5 52.7 39 -1.9 28.6
02:15 1018 30.06 848 25.04 11.5 52.6 40 -1.6 29.1
02:20 1018 30.06 848 25.04 11.4 52.5 41 -1.5 29.4
02:25 1018 30.06 848 25.04 11.3 52.3 40 -1.8 28.8
02:30 1018 30.06 848 25.04 11.3 52.3 39 -2 28.3
02:35 1018 30.06 848 25.04 11.3 52.3 41 -1.6 29.2
02:40 1018 30.06 848 25.04 11.2 52.2 40 -1.7 28.9
02:45 1019 30.09 848 25.04 11.2 52.1 40 -1.8 28.8
02:50 1019 30.09 848 25.04 11.1 52.1 40 -1.8 28.8
02:55 1019 30.09 848 25.04 11 51.9 41 -1.6 29.2
03:00 1018 30.06 848 25.04 11 51.8 41 -1.7 29
03:05 1018 30.06 848 25.04 11 51.7 41 -1.8 28.8
03:10 1018 30.06 848 25.04 10.9 51.7 41 -1.6 29.1
03:15 1018 30.06 848 25.04 10.9 51.5 42 -1.4 29.4
03:20 1018 30.06 848 25.04 10.7 51.3 42 -1.5 29.3
03:25 1018 30.06 848 25.04 10.6 51.1 43 -1.4 29.4
03:30 1018 30.06 848 25.04 10.5 51 43 -1.4 29.4
03:35 1018 30.06 848 25.04 10.4 50.8 45 -1 30.3
03:40 1018 30.06 848 25.04 10.3 50.5 45 -1 30.2
03:45 1018 30.06 848 25.04 10.2 50.3 47 -0.7 30.7
03:50 1018 30.06 848 25.04 10.1 50.1 46 -0.9 30.4
03:55 1018 30.06 848 25.04 10 49.9 46 -1.1 30
04:00 1018 30.06 848 25.04 9.9 49.9 46 -1.2 29.9
04:05 1018 30.06 848 25.04 9.8 49.7 46 -1.1 30
04:10 1018 30.06 848 25.04 9.8 49.6 45 -1.7 29
04:15 1018 30.06 848 25.04 9.9 49.8 44 -1.7 29
04:20 1018 30.06 848 25.04 9.7 49.5 45 -1.6 29.1
04:25 1018 30.06 848 25.04 9.6 49.2 46 -1.5 29.4
04:30 1018 30.06 848 25.04 9.5 49 46 -1.5 29.3
04:35 1018 30.06 847 25.01 9.3 48.7 48 -1.2 29.9
04:40 1018 30.06 848 25.04 9 48.3 48 -1.3 29.7
04:45 1018 30.06 847 25.01 8.8 47.9 50 -0.9 30.4
04:50 1018 30.06 847 25.01 8.7 47.7 51 -0.8 30.6
04:55 1018 30.06 848 25.04 8.6 47.5 53 -0.4 31.3
05:00 1018 30.06 848 25.04 8.4 47.2 55 -0.1 31.8
05:05 1018 30.06 848 25.04 8.2 46.8 55 -0.2 31.6
05:10 1018 30.06 848 25.04 8.1 46.6 57 0.2 32.3
05:15 1018 30.06 848 25.04 7.9 46.2 60 0.7 33.3
05:20 1018 30.06 848 25.04 7.7 45.9 62 1 33.8
05:25 1018 30.06 847 25.01 7.6 45.7 65 1.4 34.5
05:30 1018 30.06 847 25.01 7.3 45.1 67 1.6 34.8
05:35 1018 30.06 847 25.01 7 44.5 68 1.4 34.5
05:40 1018 30.06 847 25.01 6.9 44.3 65 0.8 33.5
05:45 1018 30.06 848 25.04 6.9 44.5 63 0.3 32.6
05:50 1018 30.06 848 25.04 7 44.6 59 -0.5 31.1
05:55 1018 30.06 847 25.01 7 44.6 59 -0.5 31.1
06:00 1018 30.06 848 25.04 7.1 44.8 59 -0.3 31.4
06:05 1018 30.06 848 25.04 7.4 45.4 59 0 32.1
06:10 1018 30.06 848 25.04 7.7 45.8 59 0.2 32.3
06:15 1018 30.06 848 25.04 7.8 46.1 59 0.3 32.5
06:20 1018 30.06 848 25.04 7.9 46.2 58 0.2 32.4
06:25 1018 30.06 848 25.04 7.9 46.1 55 -0.6 31
06:30 1018 30.06 848 25.04 8.1 46.5 55 -0.3 31.5
06:35 1018 30.06 848 25.04 8 46.5 58 0.3 32.5
06:40 1018 30.06 848 25.04 7.9 46.3 59 0.4 32.6
06:45 1019 30.09 848 25.04 8.1 46.5 58 0.4 32.8
06:50 1018 30.06 848 25.04 8.1 46.6 59 0.5 32.9
06:55 1019 30.09 848 25.04 8.1 46.6 57 0.2 32.4
07:00 1019 30.09 848 25.04 8.2 46.8 57 0.2 32.3
07:05 1019 30.09 848 25.04 8.5 47.4 54 -0.2 31.7
07:10 1019 30.09 848 25.04 8.7 47.7 54 0.1 32.1
07:15 1019 30.09 848 25.04 8.9 48 54 0.1 32.1
07:20 1019 30.09 848 25.04 9.1 48.3 52 -0.3 31.4
07:25 1019 30.09 848 25.04 9.3 48.7 51 -0.2 31.7
07:30 1019 30.09 848 25.04 9.5 49.1 50 -0.4 31.4
07:35 1019 30.09 848 25.04 9.7 49.5 48 -0.8 30.5
07:40 1019 30.09 848 25.04 9.9 49.8 48 -0.6 30.9
07:45 1019 30.09 848 25.04 10.1 50.2 45 -1.4 29.5
07:50 1019 30.09 848 25.04 10.4 50.7 42 -2 28.3
07:55 1019 30.09 848 25.04 10 50.1 43 -1.9 28.5
08:00 1019 30.09 848 25.04 10 50.1 43 -2.1 28.2
08:05 1019 30.09 848 25.04 9.7 49.5 41 -2.7 27.1
08:10 1019 30.09 848 25.04 10.1 50.2 41 -2.6 27.3
08:15 1019 30.09 848 25.04 10.1 50.1 41 -2.4 27.6
08:20 1019 30.09 848 25.04 10.8 51.4 39 -2.5 27.5
08:25 1018 30.06 848 25.04 11.6 52.9 38 -2.3 27.9
08:30 1019 30.09 848 25.04 11.2 52.1 40 -1.9 28.6
08:35 1019 30.09 848 25.04 11.9 53.3 37 -2.3 27.8
08:40 1018 30.06 848 25.04 12.2 53.9 38 -1.8 28.7
08:45 1018 30.06 848 25.04 12 53.6 38 -1.8 28.8
08:50 1018 30.06 847 25.01 11.6 52.8 40 -1.6 29.1
08:55 1018 30.06 847 25.01 11.8 53.2 39 -1.7 28.9
09:00 1018 30.06 847 25.01 11.7 53 40 -1.3 29.6
09:05 1018 30.06 847 25.01 11.7 53.1 40 -1.4 29.5
09:10 1018 30.06 847 25.01 12.3 54.2 38 -1.5 29.3
09:15 1018 30.06 847 25.01 11.8 53.2 39 -1.7 29
09:20 1018 30.06 847 25.01 12.3 54.1 38 -1.7 29
09:25 1018 30.06 847 25.01 13.2 55.7 35 -2.1 28.2
09:30 1018 30.06 847 25.01 13 55.4 35 -1.9 28.7
09:35 1018 30.06 847 25.01 13.7 56.6 35 -1.5 29.3
09:40 1018 30.06 847 25.01 13.9 57 34 -1.6 29.1
09:45 1018 30.06 847 25.01 14 57.2 34 -1.5 29.3
09:50 1018 30.06 847 25.01 13.9 56.9 33 -2.2 28.1
09:55 1018 30.06 847 25.01 14.3 57.7 30 -3 26.5
10:00 1018 30.06 847 25.01 14.7 58.5 31 -2.2 28
10:05 1018 30.06 847 25.01 14.7 58.5 32 -1.8 28.8
10:10 1018 30.06 847 25.01 14.7 58.5 31 -2 28.4
10:15 1018 30.06 847 25.01 14.8 58.6 31 -1.9 28.5
10:20 1018 30.06 847 25.01 14.3 57.7 32 -2.3 27.9
10:25 1018 30.06 847 25.01 14 57.1 33 -2.1 28.3
10:30 1017 30.03 847 25.01 14.4 57.9 33 -1.5 29.4
10:35 1017 30.03 847 25.01 15.1 59.2 32 -1.5 29.3
10:40 1017 30.03 847 25.01 15.3 59.5 31 -1.8 28.8
10:45 1017 30.03 847 25.01 15.3 59.5 33 -0.9 30.4
10:50 1017 30.03 847 25.01 14.9 58.7 33 -1.3 29.6
10:55 1017 30.03 847 25.01 15.1 59.1 32 -1.2 29.8
11:00 1017 30.03 847 25.01 15.2 59.4 32 -1.2 29.8
11:05 1017 30.03 847 25.01 14.6 58.3 33 -1.3 29.6
11:10 1017 30.03 847 25.01 14.8 58.7 32 -1.6 29.1
11:15 1017 30.03 847 25.01 15.3 59.6 32 -1 30.2
11:20 1017 30.03 847 25.01 15.7 60.2 32 -0.8 30.6
11:25 1017 30.03 847 25.01 15.9 60.6 32 -0.6 30.9
11:30 1017 30.03 847 25.01 16.2 61.2 31 -0.8 30.5
11:35 1017 30.03 847 25.01 15.7 60.2 31 -1.1 30
11:40 1017 30.03 847 25.01 15.8 60.5 31 -1 30.3
11:45 1017 30.03 846 24.98 16.1 60.9 31 -1 30.2
11:50 1017 30.03 847 25.01 15.3 59.6 33 -0.7 30.8
11:55 1017 30.03 847 25.01 15 59 33 -1.2 29.8
12:00 1017 30.03 846 24.98 15.8 60.4 32 -0.9 30.4
12:05 1017 30.03 846 24.98 15.8 60.4 32 -0.7 30.7
12:10 1017 30.03 846 24.98 16.1 60.9 32 -0.4 31.3
12:15 1017 30.03 846 24.98 15.9 60.6 32 -0.7 30.8
12:20 1017 30.03 846 24.98 16.6 61.9 31 -0.6 30.9
12:25 1017 30.03 846 24.98 17.1 62.7 30 -0.3 31.4
12:30 1017 30.03 846 24.98 16.9 62.3 33 0.5 33
12:35 1017 30.03 846 24.98 17.3 63.1 31 0.1 32.1
12:40 1017 30.03 846 24.98 17.5 63.5 31 0.2 32.4
12:45 1017 30.03 846 24.98 17 62.6 32 0.2 32.3
12:50 1017 30.03 846 24.98 17 62.6 30 -0.3 31.4
12:55 1017 30.03 846 24.98 17.2 63 31 0.1 32.2
13:00 1017 30.03 846 24.98 16.7 62 32 -0 32
13:05 1017 30.03 846 24.98 16.8 62.3 32 0.1 32.2
13:10 1017 30.03 846 24.98 16.6 61.8 31 -0.5 31.1
13:15 1017 30.03 846 24.98 16.7 62 32 -0.2 31.7
13:20 1017 30.03 847 25.01 17.1 62.7 30 -0.3 31.4
13:25 1017 30.03 847 25.01 17 62.6 30 -0.4 31.3
13:30 1017 30.03 847 25.01 17 62.6 31 0.1 32.1
13:35 1017 30.03 847 25.01 17.2 62.9 31 -0 31.9
13:40 1017 30.03 847 25.01 17.6 63.7 30 0.2 32.3
13:45 1017 30.03 847 25.01 18.1 64.5 29 -0 31.9
13:50 1017 30.03 847 25.01 17.7 63.9 30 -0.1 31.8
13:55 1017 30.03 847 25.01 17.5 63.5 30 0 32
14:00 1017 30.03 847 25.01 17.6 63.7 29 -0.3 31.5
14:05 1017 30.03 847 25.01 17.5 63.4 30 -0.3 31.5
14:10 1017 30.03 847 25.01 17.7 63.9 29 -0.5 31.1
14:15 1017 30.03 847 25.01 18.2 64.7 30 0.2 32.4
14:20 1018 30.06 847 25.01 17.8 64 31 0.5 32.8
14:25 1018 30.06 847 25.01 17.3 63.2 31 0.1 32.2
14:30 1018 30.06 847 25.01 16.9 62.5 31 -0 31.9
14:35 1018 30.06 847 25.01 16.1 61 34 0.3 32.6
14:40 1018 30.06 847 25.01 16 60.9 33 -0.2 31.6
14:45 1018 30.06 847 25.01 16.6 61.8 32 -0.2 31.6
14:50 1018 30.06 847 25.01 16.5 61.8 31 -0.5 31
14:55 1018 30.06 847 25.01 15.8 60.4 32 -0.7 30.8
15:00 1018 30.06 848 25.04 15.7 60.3 31 -1.4 29.5
15:05 1019 30.09 848 25.04 15.5 59.9 32 -1 30.3
15:10 1019 30.09 848 25.04 14.7 58.5 34 -1 30.1
15:15 1019 30.09 848 25.04 14.5 58 34 -1.2 29.8
15:20 1019 30.09 848 25.04 14.2 57.6 34 -1.1 30
15:25 1019 30.09 849 25.07 13.7 56.6 34 -1.9 28.6
15:30 1020 30.12 849 25.07 13.4 56.1 33 -2.4 27.7
15:35 1020 30.12 849 25.07 13 55.3 35 -1.9 28.5
15:40 1020 30.12 850 25.1 12.6 54.8 38 -1.4 29.6
15:45 1020 30.12 850 25.1 12.2 54 41 -0.5 31
15:50 1020 30.12 850 25.1 12 53.5 43 -0.3 31.4
15:55 1021 30.15 850 25.1 11.4 52.5 46 0.2 32.4
16:00 1021 30.15 850 25.1 11.2 52.2 48 0.8 33.4
16:05 1021 30.15 850 25.1 11.3 52.3 51 1.6 34.9
16:10 1021 30.15 850 25.1 10.9 51.6 53 1.7 35.1
16:15 1022 30.18 851 25.13 10.3 50.6 55 1.7 35.1
16:20 1022 30.18 851 25.13 10.3 50.6 57 2.1 35.8
16:25 1022 30.18 851 25.13 9.9 49.9 57 1.9 35.4
16:30 1022 30.18 851 25.13 9.8 49.6 58 2 35.6
16:35 1022 30.18 851 25.13 9.8 49.6 58 2 35.6
16:40 1022 30.18 851 25.13 9.9 49.8 58 2.1 35.7
16:45 1022 30.18 851 25.13 10.1 50.1 58 2.2 35.9
16:50 1022 30.18 851 25.13 10.2 50.3 56 1.8 35.2
16:55 1022 30.18 851 25.13 10.6 51 55 1.9 35.4
17:00 1022 30.18 851 25.13 10.5 50.9 56 2 35.7
17:05 1022 30.18 851 25.13 10.9 51.5 54 2 35.6
17:10 1022 30.18 851 25.13 11 51.7 53 1.9 35.3
17:15 1022 30.18 851 25.13 11 51.9 53 1.7 35.1
17:20 1022 30.18 851 25.13 10.4 50.7 56 2.1 35.8
17:25 1022 30.18 851 25.13 10.2 50.4 57 2 35.6
17:30 1022 30.18 851 25.13 10.4 50.7 56 2 35.6
17:35 1022 30.18 851 25.13 10.1 50.2 57 1.9 35.5
17:40 1022 30.18 851 25.13 10.5 50.9 55 1.9 35.4
17:45 1022 30.18 851 25.13 10.7 51.2 55 2.1 35.8
17:50 1022 30.18 851 25.13 10.7 51.3 56 2.4 36.2
17:55 1022 30.18 851 25.13 10.6 51 57 2.3 36.2
18:00 1022 30.18 851 25.13 10.3 50.5 58 2.4 36.2
18:05 1022 30.18 851 25.13 10.3 50.6 57 2.3 36.1
18:10 1022 30.18 851 25.13 10.6 51.2 55 2 35.6
18:15 1022 30.18 851 25.13 10.7 51.3 55 2.2 36
18:20 1022 30.18 851 25.13 10.6 51 55 2 35.6
18:25 1022 30.18 851 25.13 10.4 50.8 56 2 35.6
18:30 1022 30.18 851 25.13 10.3 50.6 55 1.8 35.2
18:35 1022 30.18 851 25.13 10.3 50.6 56 2 35.6
18:40 1022 30.18 851 25.13 10.3 50.5 56 1.9 35.5
18:45 1022 30.18 851 25.13 10.4 50.7 53 1.4 34.5
18:50 1022 30.18 851 25.13 10.6 51.1 53 1.5 34.6
18:55 1022 30.18 851 25.13 10.9 51.7 51 1.3 34.4
19:00 1022 30.18 851 25.13 11.2 52.2 47 0.3 32.5
19:05 1022 30.18 851 25.13 11.7 53 46 0.6 33.1
19:10 1022 30.18 851 25.13 11.9 53.4 45 0.3 32.5
19:15 1022 30.18 851 25.13 11.6 52.8 41 -1.2 29.9
19:20 1022 30.18 851 25.13 11.6 52.8 40 -1.5 29.3
19:25 1021 30.15 851 25.13 11.8 53.2 39 -1.7 28.9
19:30 1022 30.18 851 25.13 11.7 53.1 40 -1.5 29.3
19:35 1022 30.18 851 25.13 11.5 52.8 40 -1.7 28.9
19:40 1022 30.18 851 25.13 11.6 52.8 39 -1.9 28.5
19:45 1022 30.18 851 25.13 11.5 52.7 41 -1.4 29.5
19:50 1022 30.18 851 25.13 11.4 52.6 41 -1.4 29.5
19:55 1022 30.18 851 25.13 11.4 52.5 41 -1.4 29.4
20:00 1022 30.18 851 25.13 11.3 52.3 42 -1 30.1
20:05 1022 30.18 851 25.13 11.5 52.7 42 -1 30.2
20:10 1022 30.18 851 25.13 11.5 52.6 40 -1.6 29.1
20:15 1022 30.18 851 25.13 11.3 52.4 40 -1.8 28.8
20:20 1022 30.18 851 25.13 11.2 52.2 40 -1.8 28.8
20:25 1022 30.18 851 25.13 11.2 52.2 39 -2.3 27.8
20:30 1022 30.18 851 25.13 11.3 52.4 39 -2 28.4
20:35 1022 30.18 851 25.13 11.4 52.5 40 -1.7 28.9
20:40 1022 30.18 851 25.13 11.4 52.4 41 -1.4 29.5
20:45 1022 30.18 851 25.13 11.3 52.4 42 -1.2 29.8
20:50 1022 30.18 851 25.13 11.3 52.4 41 -1.3 29.6
20:55 1022 30.18 851 25.13 11.4 52.5 42 -0.9 30.3
21:00 1022 30.18 851 25.13 11.3 52.4 43 -0.8 30.5
21:05 1022 30.18 851 25.13 11.2 52.1 46 -0.1 31.8
21:10 1022 30.18 851 25.13 11 51.8 44 -0.8 30.6
21:15 1022 30.18 851 25.13 10.8 51.5 45 -0.5 31.2
21:20 1022 30.18 851 25.13 10.9 51.7 48 0.5 32.9
21:25 1022 30.18 851 25.13 10.7 51.2 50 0.8 33.5
21:30 1022 30.18 851 25.13 10.6 51 51 0.8 33.5
21:35 1022 30.18 851 25.13 10.4 50.6 53 1.2 34.1
21:40 1022 30.18 852 25.16 10.1 50.2 52 0.8 33.5
21:45 1022 30.18 852 25.16 9.9 49.8 55 1.4 34.6
21:50 1022 30.18 852 25.16 9.5 49.1 59 1.9 35.5
21:55 1022 30.18 852 25.16 9.2 48.6 63 2.5 36.5
22:00 1022 30.18 852 25.16 8.9 48.1 64 2.6 36.6
22:05 1023 30.21 852 25.16 8.7 47.7 67 2.9 37.2
22:10 1023 30.21 852 25.16 8.5 47.3 68 2.9 37.3
22:15 1023 30.21 852 25.16 8.4 47.1 68 2.8 37.1
22:20 1023 30.21 852 25.16 8.3 46.9 69 3 37.5
22:25 1023 30.21 852 25.16 8.1 46.6 70 3.1 37.5
22:30 1023 30.21 852 25.16 8.1 46.5 70 2.9 37.3
22:35 1023 30.21 852 25.16 8 46.4 69 2.7 36.9
22:40 1023 30.21 852 25.16 7.8 46.1 70 2.7 36.8
22:45 1023 30.21 852 25.16 7.5 45.6 72 2.8 37.1
22:50 1023 30.21 852 25.16 7.4 45.2 72 2.7 36.9
22:55 1023 30.21 852 25.16 7.3 45.1 73 2.7 36.9
23:00 1023 30.21 852 25.16 7 44.7 75 2.8 37.1
23:05 1023 30.21 852 25.16 6.7 44.1 76 2.8 37.1
23:10 1023 30.21 852 25.16 6.6 43.8 76 2.6 36.8
23:15 1023 30.21 852 25.16 6.6 43.9 74 2.4 36.3
23:20 1023 30.21 852 25.16 6.5 43.6 73 2 35.7
23:25 1023 30.21 852 25.16 6.3 43.3 74 1.9 35.4
23:30 1023 30.21 852 25.16 6.1 43 74 1.8 35.2
23:35 1023 30.21 852 25.16 6 42.9 74 1.7 35
23:40 1023 30.21 852 25.16 6 42.8 73 1.5 34.6
23:45 1023 30.21 852 25.16 6 42.8 74 1.7 35
23:50 1023 30.21 852 25.16 5.9 42.6 74 1.5 34.8
23:55 1023 30.21 852 25.16 5.8 42.5 74 1.5 34.8
24:00 1023 30.21 852 25.16 5.8 42.4 73 1.3 34.4